createdAt,value
2018-07-17T00:02:09.312Z,65.70
2018-07-17T00:04:38.209Z,65.60
2018-07-17T00:07:06.647Z,65.90
2018-07-17T00:09:35.054Z,66.10
2018-07-17T00:12:03.482Z,66.30
2018-07-17T00:14:31.865Z,66.70
2018-07-17T00:17:00.281Z,66.60
2018-07-17T00:19:28.688Z,66.30
2018-07-17T00:21:57.090Z,66.00
2018-07-17T00:24:26.068Z,65.70
2018-07-17T00:26:54.686Z,65.40
2018-07-17T00:29:23.092Z,65.00
2018-07-17T00:31:52.154Z,64.80
2018-07-17T00:34:21.148Z,64.60
2018-07-17T00:36:49.549Z,64.50
2018-07-17T00:39:17.946Z,64.50
2018-07-17T00:41:46.366Z,64.50
2018-07-17T00:44:14.780Z,64.40
2018-07-17T00:46:43.202Z,64.30
2018-07-17T00:49:11.626Z,64.20
2018-07-17T00:51:40.616Z,64.10
2018-07-17T00:54:09.140Z,63.90
2018-07-17T00:56:37.498Z,63.90
2018-07-17T00:59:05.898Z,63.80
2018-07-17T01:01:39.553Z,63.40
2018-07-17T01:04:13.376Z,63.40
2018-07-17T01:06:47.267Z,63.30
2018-07-17T01:09:21.119Z,63.30
2018-07-17T01:11:54.769Z,63.50
2018-07-17T01:14:30.535Z,63.70
2018-07-17T01:16:58.927Z,64.20
2018-07-17T01:19:27.323Z,64.40
2018-07-17T01:21:55.722Z,64.70
2018-07-17T01:24:24.113Z,65.00
2018-07-17T01:26:52.505Z,65.10
2018-07-17T01:29:21.397Z,65.30
2018-07-17T01:31:49.796Z,65.40
2018-07-17T01:34:18.349Z,65.70
2018-07-17T01:36:47.011Z,66.00
2018-07-17T01:39:15.418Z,66.20
2018-07-17T01:41:44.319Z,66.40
2018-07-17T01:44:16.523Z,66.80
2018-07-17T01:46:46.591Z,66.70
2018-07-17T01:49:16.026Z,67.00
2018-07-17T01:51:44.431Z,67.40
2018-07-17T01:54:12.869Z,67.70
2018-07-17T01:56:41.485Z,67.90
2018-07-17T01:59:10.332Z,68.60
2018-07-17T02:01:39.327Z,68.80
2018-07-17T02:04:07.761Z,69.10
2018-07-17T02:06:36.190Z,69.50
2018-07-17T02:09:05.812Z,69.90
2018-07-17T02:11:34.241Z,70.30
2018-07-17T02:14:02.670Z,70.60
2018-07-17T02:16:31.862Z,71.10
2018-07-17T02:19:00.874Z,71.60
2018-07-17T02:21:29.273Z,72.00
2018-07-17T02:23:57.683Z,73.00
2018-07-17T02:26:26.130Z,73.20
2018-07-17T02:28:54.568Z,73.50
2018-07-17T02:31:23.129Z,73.90
2018-07-17T02:33:51.560Z,74.30
2018-07-17T02:36:19.974Z,74.60
2018-07-17T02:38:48.384Z,75.00
2018-07-17T02:41:16.786Z,75.30
2018-07-17T02:43:45.176Z,75.60
2018-07-17T02:46:13.677Z,75.90
2018-07-17T02:48:42.087Z,75.90
2018-07-17T02:51:10.501Z,76.40
2018-07-17T02:53:38.897Z,76.70
2018-07-17T02:56:07.298Z,76.90
2018-07-17T02:58:35.703Z,77.20
2018-07-17T03:01:04.495Z,77.70
2018-07-17T03:03:32.883Z,78.80
2018-07-17T03:06:01.330Z,78.40
2018-07-17T03:08:29.753Z,78.90
2018-07-17T03:10:58.159Z,79.40
2018-07-17T03:13:26.641Z,79.80
2018-07-17T03:15:55.073Z,80.00
2018-07-17T03:18:23.481Z,80.40
2018-07-17T03:20:51.869Z,80.90
2018-07-17T03:23:20.272Z,81.20
2018-07-17T03:25:48.684Z,81.70
2018-07-17T03:28:17.089Z,82.00
2018-07-17T03:30:45.496Z,82.30
2018-07-17T03:33:13.909Z,82.60
2018-07-17T03:35:42.321Z,82.90
2018-07-17T03:40:38.814Z,83.90
2018-07-17T03:43:07.217Z,83.90
2018-07-17T03:45:35.608Z,83.90
2018-07-17T03:48:04.028Z,83.90
2018-07-17T03:50:32.686Z,83.90
2018-07-17T03:53:01.111Z,83.90
2018-07-17T03:55:29.514Z,84.20
2018-07-17T03:57:57.928Z,84.00
2018-07-17T04:00:26.334Z,84.70
2018-07-17T04:02:54.759Z,84.00
2018-07-17T04:05:23.134Z,84.00
2018-07-17T04:07:51.526Z,83.80
2018-07-17T04:10:19.946Z,83.90
2018-07-17T04:12:48.354Z,84.40
2018-07-17T04:15:16.760Z,85.20
2018-07-17T04:17:45.179Z,86.10
2018-07-17T04:20:13.605Z,86.80
2018-07-17T04:22:42.011Z,87.60
2018-07-17T04:25:10.407Z,88.60
2018-07-17T04:27:39.039Z,89.50
2018-07-17T04:30:08.057Z,89.60
2018-07-17T04:32:36.545Z,89.90
2018-07-17T04:35:05.510Z,90.00
2018-07-17T04:37:33.923Z,89.30
2018-07-17T04:40:02.379Z,89.10
2018-07-17T04:42:30.967Z,89.30
2018-07-17T04:44:59.378Z,89.60
2018-07-17T04:47:27.797Z,89.80
2018-07-17T04:49:56.585Z,89.80
2018-07-17T04:52:26.061Z,90.10
2018-07-17T04:54:54.549Z,90.20
2018-07-17T04:57:22.950Z,90.20
2018-07-17T04:59:51.399Z,90.30
2018-07-17T05:02:19.976Z,90.40
2018-07-17T05:04:48.390Z,90.40
2018-07-17T05:07:16.801Z,90.50
2018-07-17T05:09:45.313Z,90.50
2018-07-17T05:12:13.705Z,90.50
2018-07-17T05:14:42.119Z,90.50
2018-07-17T05:17:10.871Z,91.10
2018-07-17T05:19:39.283Z,90.90
2018-07-17T05:22:07.854Z,91.20
2018-07-17T05:24:36.254Z,91.20
2018-07-17T05:27:04.673Z,91.40
2018-07-17T05:29:33.134Z,91.60
2018-07-17T05:32:01.532Z,91.60
2018-07-17T05:34:29.932Z,91.60
2018-07-17T05:36:58.376Z,91.70
2018-07-17T05:39:27.072Z,91.70
2018-07-17T05:41:55.478Z,91.80
2018-07-17T05:44:24.220Z,91.80
2018-07-17T05:46:53.054Z,91.80
2018-07-17T05:49:21.508Z,91.90
2018-07-17T05:51:50.041Z,92.00
2018-07-17T05:54:18.410Z,92.10
2018-07-17T05:56:46.959Z,92.20
2018-07-17T05:59:15.375Z,92.30
2018-07-17T06:01:45.460Z,92.30
2018-07-17T06:04:15.660Z,92.10
2018-07-17T06:06:44.456Z,92.20
2018-07-17T06:09:12.875Z,92.30
2018-07-17T06:11:41.878Z,92.20
2018-07-17T06:14:10.287Z,92.10
2018-07-17T06:16:39.086Z,92.10
2018-07-17T06:19:07.903Z,92.10
2018-07-17T06:21:36.321Z,91.90
2018-07-17T06:24:04.853Z,91.70
2018-07-17T06:26:33.276Z,91.60
2018-07-17T06:29:01.694Z,91.40
2018-07-17T06:31:30.091Z,91.30
2018-07-17T06:33:58.496Z,91.20
2018-07-17T06:36:26.902Z,91.10
2018-07-17T06:38:55.338Z,90.80
2018-07-17T06:41:23.730Z,90.90
2018-07-17T06:43:52.132Z,90.60
2018-07-17T06:46:20.673Z,90.40
2018-07-17T06:48:49.153Z,90.40
2018-07-17T06:51:17.647Z,90.10
2018-07-17T06:53:46.057Z,90.10
2018-07-17T06:56:14.493Z,90.00
2018-07-17T06:58:42.911Z,90.10
2018-07-17T07:01:11.707Z,89.80
2018-07-17T07:03:40.104Z,89.50
2018-07-17T07:06:08.511Z,88.30
2018-07-17T07:08:37.135Z,87.80
2018-07-17T07:11:06.028Z,86.90
2018-07-17T07:13:34.417Z,85.70
2018-07-17T07:16:02.835Z,85.10
2018-07-17T07:18:31.693Z,84.70
2018-07-17T07:21:00.443Z,83.50
2018-07-17T07:23:28.983Z,83.10
2018-07-17T07:25:57.302Z,82.10
2018-07-17T07:28:25.702Z,81.30
2018-07-17T07:30:54.121Z,81.60
2018-07-17T07:33:22.573Z,80.10
2018-07-17T07:35:50.974Z,79.10
2018-07-17T07:38:19.806Z,77.10
2018-07-17T07:40:48.212Z,77.00
2018-07-17T07:43:17.615Z,76.10
2018-07-17T07:45:46.048Z,74.70
2018-07-17T07:48:14.454Z,71.80
2018-07-17T07:50:42.845Z,69.30
2018-07-17T07:53:11.242Z,67.70
2018-07-17T07:55:39.795Z,66.50
2018-07-17T07:58:08.202Z,65.30
2018-07-17T08:00:36.602Z,64.40
2018-07-17T08:03:05.594Z,63.60
2018-07-17T08:05:34.122Z,62.40
2018-07-17T08:08:02.525Z,61.40
2018-07-17T08:10:31.695Z,60.20
2018-07-17T08:13:00.103Z,59.30
2018-07-17T08:15:28.519Z,59.10
2018-07-17T08:17:56.923Z,58.60
2018-07-17T08:20:25.320Z,58.40
2018-07-17T08:22:53.733Z,57.90
2018-07-17T08:25:22.149Z,57.90
2018-07-17T08:27:50.543Z,57.80
2018-07-17T08:30:18.940Z,57.80
2018-07-17T08:32:47.373Z,56.90
2018-07-17T08:35:15.790Z,56.80
2018-07-17T08:37:44.184Z,55.40
2018-07-17T08:40:12.581Z,54.90
2018-07-17T08:42:41.141Z,54.50
2018-07-17T08:45:09.555Z,54.20
2018-07-17T08:47:37.949Z,54.20
2018-07-17T08:50:06.382Z,54.50
2018-07-17T08:52:34.823Z,54.10
2018-07-17T08:55:03.253Z,54.40
2018-07-17T08:57:31.653Z,54.60
2018-07-17T09:00:00.057Z,54.20
2018-07-17T09:02:28.484Z,53.50
2018-07-17T09:04:56.893Z,53.20
2018-07-17T09:07:25.495Z,53.20
2018-07-17T09:09:53.900Z,52.90
2018-07-17T09:12:22.292Z,53.30
2018-07-17T09:14:50.690Z,53.00
2018-07-17T09:17:19.083Z,53.20
2018-07-17T09:19:47.494Z,52.90
2018-07-17T09:22:15.911Z,53.30
2018-07-17T09:24:44.311Z,52.30
2018-07-17T09:27:12.717Z,51.70
2018-07-17T09:29:41.109Z,51.30
2018-07-17T09:32:09.513Z,51.20
2018-07-17T09:34:37.912Z,51.50
2018-07-17T09:37:06.340Z,52.10
2018-07-17T09:42:03.379Z,50.20
2018-07-17T09:44:31.783Z,50.60
2018-07-17T09:47:00.355Z,50.30
2018-07-17T09:49:28.774Z,50.00
2018-07-17T09:51:57.180Z,50.00
2018-07-17T09:54:25.650Z,49.60
2018-07-17T09:56:54.262Z,49.50
2018-07-17T09:59:22.742Z,49.50
2018-07-17T10:01:56.549Z,49.20
2018-07-17T10:04:24.948Z,49.10
2018-07-17T10:06:53.360Z,49.20
2018-07-17T10:09:21.818Z,47.60
2018-07-17T10:11:50.182Z,46.60
2018-07-17T10:14:18.794Z,47.00
2018-07-17T10:16:47.222Z,47.40
2018-07-17T10:19:15.625Z,46.90
2018-07-17T10:21:44.088Z,47.00
2018-07-17T10:24:12.500Z,46.30
2018-07-17T10:26:41.702Z,45.00
2018-07-17T10:29:10.124Z,44.70
2018-07-17T10:31:38.512Z,44.80
2018-07-17T10:34:06.921Z,45.20
2018-07-17T10:36:35.330Z,43.90
2018-07-17T10:39:04.747Z,44.10
2018-07-17T10:41:33.602Z,44.80
2018-07-17T10:44:02.004Z,45.20
2018-07-17T10:46:30.406Z,43.50
2018-07-17T10:48:58.816Z,42.70
2018-07-17T10:51:27.238Z,42.70
2018-07-17T10:53:55.626Z,43.10
2018-07-17T10:56:24.030Z,43.30
2018-07-17T10:58:52.451Z,43.30
2018-07-17T11:01:20.873Z,43.30
2018-07-17T11:03:49.284Z,43.30
2018-07-17T11:06:18.471Z,44.20
2018-07-17T11:08:46.896Z,44.00
2018-07-17T11:11:15.307Z,44.30
2018-07-17T11:13:43.702Z,44.40
2018-07-17T11:16:12.324Z,43.90
2018-07-17T11:18:40.738Z,42.70
2018-07-17T11:21:09.139Z,42.80
2018-07-17T11:23:37.537Z,42.60
2018-07-17T11:26:06.028Z,41.60
2018-07-17T11:28:34.457Z,41.90
2018-07-17T11:31:02.851Z,41.70
2018-07-17T11:33:31.305Z,41.40
2018-07-17T11:35:59.745Z,41.50
2018-07-17T11:38:28.157Z,41.30
2018-07-17T11:40:56.544Z,41.60
2018-07-17T11:43:24.979Z,41.00
2018-07-17T11:45:53.605Z,41.70
2018-07-17T11:48:22.024Z,41.80
2018-07-17T11:50:50.689Z,41.60
2018-07-17T11:53:20.271Z,41.90
2018-07-17T11:55:49.057Z,42.20
2018-07-17T11:58:17.662Z,40.80
2018-07-17T12:00:46.076Z,41.20
2018-07-17T12:03:14.490Z,41.20
2018-07-17T12:05:42.932Z,41.20
2018-07-17T12:08:11.337Z,41.30
2018-07-17T12:10:39.727Z,41.20
2018-07-17T12:13:08.157Z,40.60
2018-07-17T12:15:36.768Z,40.40
2018-07-17T12:18:05.200Z,40.40
2018-07-17T12:20:33.741Z,40.80
2018-07-17T12:23:02.396Z,40.10
2018-07-17T12:25:30.796Z,40.40
2018-07-17T12:27:59.231Z,40.90
2018-07-17T12:30:27.635Z,41.20
2018-07-17T12:32:56.042Z,40.80
2018-07-17T12:35:24.780Z,40.80
2018-07-17T12:37:53.808Z,39.80
2018-07-17T12:40:22.866Z,41.00
2018-07-17T12:42:51.750Z,41.70
2018-07-17T12:45:20.149Z,42.30
2018-07-17T12:47:48.545Z,42.50
2018-07-17T12:50:16.935Z,41.40
2018-07-17T12:52:45.817Z,41.50
2018-07-17T12:55:14.208Z,41.40
2018-07-17T12:57:43.729Z,40.40
2018-07-17T13:00:12.650Z,41.90
2018-07-17T13:02:41.162Z,42.10
2018-07-17T13:05:09.510Z,43.10
2018-07-17T13:07:37.914Z,44.10
2018-07-17T13:10:07.179Z,44.20
2018-07-17T13:12:35.579Z,44.00
2018-07-17T13:15:04.074Z,43.90
2018-07-17T13:17:32.574Z,44.30
2018-07-17T13:20:00.959Z,43.00
2018-07-17T13:22:29.364Z,42.90
2018-07-17T13:24:57.769Z,42.30
2018-07-17T13:27:26.162Z,41.90
2018-07-17T13:29:54.580Z,41.70
2018-07-17T13:32:22.986Z,40.70
2018-07-17T13:34:51.397Z,41.20
2018-07-17T13:37:19.792Z,41.70
2018-07-17T13:39:48.351Z,42.60
2018-07-17T13:42:16.799Z,42.00
2018-07-17T13:44:46.015Z,41.30
2018-07-17T13:47:14.416Z,40.70
2018-07-17T13:49:42.828Z,41.10
2018-07-17T13:52:11.237Z,40.40
2018-07-17T13:54:39.646Z,40.60
2018-07-17T13:57:08.067Z,40.00
2018-07-17T13:59:36.505Z,39.50
2018-07-17T14:02:06.195Z,39.80
2018-07-17T14:04:39.439Z,38.50
2018-07-17T14:07:07.954Z,38.60
2018-07-17T14:09:36.938Z,39.00
2018-07-17T14:12:05.745Z,38.20
2018-07-17T14:14:34.136Z,37.70
2018-07-17T14:17:02.901Z,38.10
2018-07-17T14:19:31.306Z,38.30
2018-07-17T14:22:00.214Z,38.10
2018-07-17T14:24:29.176Z,38.00
2018-07-17T14:26:57.878Z,38.50
2018-07-17T14:29:26.287Z,37.40
2018-07-17T14:31:54.692Z,38.10
2018-07-17T14:34:23.285Z,38.60
2018-07-17T14:36:51.689Z,38.50
2018-07-17T14:39:20.088Z,38.70
2018-07-17T14:41:49.244Z,38.80
2018-07-17T14:44:17.647Z,38.80
2018-07-17T14:46:46.075Z,39.40
2018-07-17T14:49:14.491Z,39.20
2018-07-17T14:51:43.039Z,38.80
2018-07-17T14:54:11.439Z,38.00
2018-07-17T14:56:39.940Z,37.70
2018-07-17T14:59:08.375Z,38.30
2018-07-17T15:01:36.805Z,38.70
2018-07-17T15:04:05.243Z,38.90
2018-07-17T15:06:33.665Z,39.10
2018-07-17T15:09:02.117Z,39.20
2018-07-17T15:11:30.503Z,39.10
2018-07-17T15:13:58.899Z,39.50
2018-07-17T15:16:27.285Z,40.00
2018-07-17T15:18:55.693Z,39.90
2018-07-17T15:21:24.092Z,39.40
2018-07-17T15:23:52.497Z,39.30
2018-07-17T15:26:20.914Z,39.50
2018-07-17T15:28:49.310Z,39.80
2018-07-17T15:31:17.798Z,40.00
2018-07-17T15:33:46.194Z,39.30
2018-07-17T15:36:14.612Z,38.40
2018-07-17T15:38:43.023Z,38.00
2018-07-17T15:41:11.464Z,37.20
2018-07-17T15:43:39.880Z,37.00
2018-07-17T15:46:09.135Z,37.90
2018-07-17T15:48:37.568Z,36.50
2018-07-17T15:51:05.993Z,36.30
2018-07-17T15:53:34.456Z,36.50
2018-07-17T15:56:02.852Z,36.50
2018-07-17T15:58:31.813Z,37.40
2018-07-17T16:01:00.224Z,38.10
2018-07-17T16:03:28.650Z,38.80
2018-07-17T16:05:57.125Z,39.40
2018-07-17T16:08:25.952Z,39.60
2018-07-17T16:10:54.345Z,39.90
2018-07-17T16:13:22.777Z,40.20
2018-07-17T16:15:51.335Z,40.40
2018-07-17T16:18:19.780Z,40.70
2018-07-17T16:20:48.192Z,41.00
2018-07-17T16:23:16.595Z,41.40
2018-07-17T16:25:45.297Z,42.10
2018-07-17T16:28:13.710Z,41.60
2018-07-17T16:30:42.117Z,41.20
2018-07-17T16:33:10.877Z,40.10
2018-07-17T16:35:39.281Z,39.70
2018-07-17T16:38:07.818Z,39.20
2018-07-17T16:40:36.321Z,38.80
2018-07-17T16:43:04.795Z,38.50
2018-07-17T16:45:33.193Z,38.90
2018-07-17T16:48:01.684Z,39.30
2018-07-17T16:50:30.025Z,40.00
2018-07-17T16:52:58.425Z,40.80
2018-07-17T16:55:27.661Z,42.00
2018-07-17T16:57:56.706Z,42.90
2018-07-17T17:00:25.100Z,43.40
2018-07-17T17:02:53.516Z,43.80
2018-07-17T17:05:21.928Z,44.40
2018-07-17T17:07:50.322Z,44.80
2018-07-17T17:10:18.734Z,45.10
2018-07-17T17:12:47.142Z,44.90
2018-07-17T17:15:16.046Z,45.30
2018-07-17T17:17:45.144Z,45.30
2018-07-17T17:20:13.636Z,45.40
2018-07-17T17:22:42.420Z,45.00
2018-07-17T17:25:10.922Z,44.60
2018-07-17T17:27:39.375Z,44.90
2018-07-17T17:30:08.327Z,44.60
2018-07-17T17:32:36.958Z,44.40
2018-07-17T17:35:05.444Z,44.60
2018-07-17T17:37:33.931Z,44.70
2018-07-17T17:40:02.338Z,43.60
2018-07-17T17:42:32.425Z,41.70
2018-07-17T17:45:02.527Z,40.10
2018-07-17T17:47:31.350Z,39.60
2018-07-17T17:50:00.989Z,40.70
2018-07-17T17:52:31.781Z,41.70
2018-07-17T17:57:38.057Z,43.50
2018-07-17T18:00:07.577Z,44.10
2018-07-17T18:02:36.031Z,45.00
2018-07-17T18:05:04.868Z,45.90
2018-07-17T18:07:33.361Z,46.70
2018-07-17T18:10:02.571Z,47.30
2018-07-17T18:12:31.651Z,47.80
2018-07-17T18:15:00.064Z,48.20
2018-07-17T18:17:28.838Z,48.40
2018-07-17T18:19:57.239Z,48.50
2018-07-17T18:22:25.667Z,49.10
2018-07-17T18:24:54.607Z,48.80
2018-07-17T18:27:24.068Z,48.90
2018-07-17T18:29:52.571Z,49.10
2018-07-17T18:34:49.948Z,49.60
2018-07-17T18:37:18.397Z,49.50
2018-07-17T18:39:46.941Z,49.70
2018-07-17T18:42:15.530Z,49.90
2018-07-17T18:44:43.849Z,49.80
2018-07-17T18:47:12.831Z,50.20
2018-07-17T18:49:41.302Z,50.00
2018-07-17T18:52:09.849Z,49.40
2018-07-17T18:54:38.605Z,48.50
2018-07-17T18:57:07.054Z,47.10
2018-07-17T18:59:36.026Z,46.10
2018-07-17T19:04:33.157Z,44.70
2018-07-17T19:07:01.623Z,44.40
2018-07-17T19:09:30.066Z,44.10
2018-07-17T19:11:58.509Z,43.70
2018-07-17T19:14:27.560Z,44.40
2018-07-17T19:16:56.041Z,43.60
2018-07-17T19:19:25.093Z,43.40
2018-07-17T19:21:53.641Z,43.30
2018-07-17T19:24:22.511Z,43.20
2018-07-17T19:26:51.027Z,43.00
2018-07-17T19:29:19.911Z,43.20
2018-07-17T19:31:49.002Z,43.70
2018-07-17T19:34:17.536Z,44.20
2018-07-17T19:36:46.133Z,44.10
2018-07-17T19:39:15.068Z,44.30
2018-07-17T19:41:44.110Z,44.20
2018-07-17T19:44:12.612Z,44.10
2018-07-17T19:46:41.086Z,44.20
2018-07-17T19:49:10.062Z,44.70
2018-07-17T19:51:38.499Z,45.20
2018-07-17T19:54:07.102Z,45.70
2018-07-17T19:56:35.760Z,46.40
2018-07-17T19:59:04.228Z,47.00
2018-07-17T20:01:33.340Z,47.30
2018-07-17T20:04:01.742Z,47.80
2018-07-17T20:06:30.627Z,48.50
2018-07-17T20:08:59.815Z,48.70
2018-07-17T20:11:28.787Z,48.60
2018-07-17T20:13:57.283Z,48.20
2018-07-17T20:16:25.870Z,48.30
2018-07-17T20:18:54.616Z,48.50
2018-07-17T20:21:23.061Z,48.60
2018-07-17T20:23:51.527Z,48.90
2018-07-17T20:26:19.939Z,49.50
2018-07-17T20:28:48.665Z,49.90
2018-07-17T20:31:17.102Z,50.20
2018-07-17T20:33:46.195Z,50.40
2018-07-17T20:36:14.851Z,51.20
2018-07-17T20:38:43.608Z,50.80
2018-07-17T20:41:12.044Z,50.60
2018-07-17T20:43:40.459Z,50.50
2018-07-17T20:46:08.967Z,50.40
2018-07-17T20:48:37.381Z,50.40
2018-07-17T20:51:05.890Z,50.40
2018-07-17T20:53:34.713Z,50.70
2018-07-17T20:56:04.056Z,50.80
2018-07-17T20:58:32.551Z,50.90
2018-07-17T21:01:01.422Z,50.90
2018-07-17T21:03:29.868Z,50.90
2018-07-17T21:05:58.272Z,50.80
2018-07-17T21:08:27.431Z,50.90
2018-07-17T21:10:55.972Z,50.80
2018-07-17T21:13:24.841Z,51.00
2018-07-17T21:15:53.570Z,51.10
2018-07-17T21:18:21.991Z,51.20
2018-07-17T21:20:50.462Z,51.10
2018-07-17T21:23:19.278Z,51.00
2018-07-17T21:25:47.920Z,50.80
2018-07-17T21:28:16.908Z,51.30
2018-07-17T21:30:45.310Z,52.20
2018-07-17T21:33:13.698Z,53.40
2018-07-17T21:35:42.094Z,54.40
2018-07-17T21:38:10.684Z,55.10
2018-07-17T21:40:39.682Z,56.00
2018-07-17T21:43:08.110Z,56.90
2018-07-17T21:45:36.658Z,57.70
2018-07-17T21:48:05.079Z,58.50
2018-07-17T21:50:33.758Z,58.70
2018-07-17T21:53:02.225Z,59.50
2018-07-17T21:55:30.839Z,59.70
2018-07-17T21:57:59.241Z,60.10
2018-07-17T22:00:28.923Z,60.10
2018-07-17T22:02:58.139Z,60.10
2018-07-17T22:05:27.189Z,60.80
2018-07-17T22:07:55.680Z,62.40
2018-07-17T22:10:24.081Z,62.80
2018-07-17T22:12:52.557Z,63.20
2018-07-17T22:15:21.172Z,63.00
2018-07-17T22:17:49.530Z,62.80
2018-07-17T22:20:17.973Z,63.10
2018-07-17T22:22:46.376Z,63.60
2018-07-17T22:25:15.415Z,64.00
2018-07-17T22:27:43.891Z,64.40
2018-07-17T22:30:12.336Z,64.90
2018-07-17T22:35:08.994Z,65.10
2018-07-17T22:37:37.825Z,65.00
2018-07-17T22:40:06.963Z,64.90
2018-07-17T22:42:35.370Z,65.30
2018-07-17T22:45:03.771Z,65.10
2018-07-17T22:47:32.179Z,65.10
2018-07-17T22:50:00.595Z,65.80
2018-07-17T22:52:28.990Z,66.40
2018-07-17T22:54:57.391Z,66.40
2018-07-17T22:57:26.204Z,66.40
2018-07-17T22:59:54.680Z,66.50
2018-07-17T23:02:23.082Z,66.40
2018-07-17T23:04:51.494Z,66.20
2018-07-17T23:07:19.894Z,66.10
2018-07-17T23:09:48.292Z,65.80
2018-07-17T23:12:17.134Z,65.80
2018-07-17T23:14:45.486Z,66.10
2018-07-17T23:17:13.906Z,66.40
2018-07-17T23:19:42.306Z,66.80
2018-07-17T23:22:10.717Z,67.00
2018-07-17T23:24:39.112Z,67.30
2018-07-17T23:27:07.515Z,67.90
2018-07-17T23:29:35.907Z,68.60
2018-07-17T23:32:04.306Z,68.80
2018-07-17T23:34:32.907Z,69.90
2018-07-17T23:37:01.322Z,71.20
2018-07-17T23:39:29.716Z,71.50
2018-07-17T23:41:58.345Z,71.30
2018-07-17T23:44:26.986Z,70.80
2018-07-17T23:46:55.386Z,70.80
2018-07-17T23:49:29.261Z,70.40
2018-07-17T23:51:57.655Z,70.10
2018-07-17T23:54:26.403Z,69.80
2018-07-17T23:56:54.874Z,69.90
2018-07-17T23:59:23.275Z,69.60
